createdAt,value
2023-05-20T00:02:03.311Z,4.63
2023-05-20T00:04:30.304Z,4.57
2023-05-20T00:06:57.025Z,3.73
2023-05-20T00:09:23.679Z,3.03
2023-05-20T00:11:50.412Z,3.37
2023-05-20T00:14:17.128Z,3.40
2023-05-20T00:16:43.869Z,3.67
2023-05-20T00:19:11.029Z,3.83
2023-05-20T00:21:37.814Z,4.20
2023-05-20T00:24:04.600Z,4.03
2023-05-20T00:26:31.361Z,4.10
2023-05-20T00:28:58.759Z,3.53
2023-05-20T00:31:25.645Z,3.80
2023-05-20T00:33:52.420Z,3.80
2023-05-20T00:36:19.289Z,3.50
2023-05-20T00:38:46.051Z,3.83
2023-05-20T00:41:12.821Z,3.97
2023-05-20T00:43:39.513Z,4.10
2023-05-20T00:46:06.319Z,3.83
2023-05-20T00:48:39.912Z,4.33
2023-05-20T00:51:07.652Z,3.90
2023-05-20T00:53:34.744Z,3.63
2023-05-20T00:56:01.640Z,3.93
2023-05-20T00:58:28.514Z,4.20
2023-05-20T01:00:55.448Z,3.83
2023-05-20T01:03:22.274Z,3.83
2023-05-20T01:05:49.374Z,4.37
2023-05-20T01:08:16.618Z,3.80
2023-05-20T01:10:46.700Z,4.13
2023-05-20T01:13:16.115Z,4.37
2023-05-20T01:15:43.420Z,3.80
2023-05-20T01:18:10.689Z,4.47
2023-05-20T01:20:37.818Z,4.57
2023-05-20T01:23:05.291Z,3.97
2023-05-20T01:25:32.473Z,3.80
2023-05-20T01:27:59.507Z,4.17
2023-05-20T01:30:28.139Z,4.10
2023-05-20T01:32:57.959Z,4.23
2023-05-20T01:35:24.944Z,4.03
2023-05-20T01:37:52.778Z,4.40
2023-05-20T01:40:21.146Z,4.80
2023-05-20T01:42:52.957Z,4.67
2023-05-20T01:45:20.229Z,4.50
2023-05-20T01:47:47.014Z,4.60
2023-05-20T01:50:13.791Z,4.57
2023-05-20T01:52:40.656Z,4.63
2023-05-20T01:55:07.524Z,4.57
2023-05-20T01:57:34.375Z,4.50
2023-05-20T02:00:02.379Z,4.30
2023-05-20T02:02:40.149Z,4.63
2023-05-20T02:05:09.705Z,4.80
2023-05-20T02:07:36.365Z,4.50
2023-05-20T02:10:03.876Z,4.40
2023-05-20T02:12:30.663Z,5.30
2023-05-20T02:14:57.482Z,4.50
2023-05-20T02:17:24.326Z,4.73
2023-05-20T02:19:51.190Z,4.93
2023-05-20T02:22:18.126Z,4.87
2023-05-20T02:24:44.802Z,4.87
2023-05-20T02:27:11.818Z,4.67
2023-05-20T02:29:38.562Z,5.17
2023-05-20T02:32:05.497Z,4.50
2023-05-20T02:34:32.365Z,5.57
2023-05-20T02:36:59.152Z,4.90
2023-05-20T02:39:26.012Z,4.43
2023-05-20T02:41:52.772Z,4.60
2023-05-20T02:44:19.524Z,5.60
2023-05-20T02:46:46.228Z,4.93
2023-05-20T02:49:12.956Z,5.33
2023-05-20T02:51:40.398Z,5.43
2023-05-20T02:54:07.354Z,5.10
2023-05-20T02:56:34.222Z,4.70
2023-05-20T02:59:03.483Z,5.93
2023-05-20T03:01:30.468Z,5.07
2023-05-20T03:03:57.189Z,5.23
2023-05-20T03:06:24.026Z,5.60
2023-05-20T03:08:51.029Z,5.70
2023-05-20T03:11:17.775Z,5.50
2023-05-20T03:13:44.463Z,5.23
2023-05-20T03:16:13.136Z,5.43
2023-05-20T03:18:40.767Z,5.63
2023-05-20T03:21:07.555Z,4.97
2023-05-20T03:23:34.618Z,5.53
2023-05-20T03:26:01.729Z,5.50
2023-05-20T03:28:28.505Z,5.60
2023-05-20T03:30:55.389Z,5.87
2023-05-20T03:33:25.957Z,5.50
2023-05-20T03:35:53.693Z,5.20
2023-05-20T03:38:20.580Z,4.93
2023-05-20T03:40:47.306Z,4.80
2023-05-20T03:43:14.041Z,5.87
2023-05-20T03:45:40.765Z,6.10
2023-05-20T03:48:07.987Z,5.73
2023-05-20T03:50:35.817Z,5.77
2023-05-20T03:53:02.645Z,5.17
2023-05-20T03:55:36.242Z,5.67
2023-05-20T03:58:03.460Z,5.13
2023-05-20T04:00:31.802Z,6.27
2023-05-20T04:02:58.619Z,5.97
2023-05-20T04:05:25.357Z,6.00
2023-05-20T04:07:52.327Z,5.43
2023-05-20T04:10:21.856Z,5.43
2023-05-20T04:12:50.338Z,5.77
2023-05-20T04:15:17.352Z,5.97
2023-05-20T04:17:54.757Z,5.73
2023-05-20T04:20:21.676Z,6.17
2023-05-20T04:22:49.323Z,6.53
2023-05-20T04:25:16.876Z,5.93
2023-05-20T04:27:44.085Z,5.47
2023-05-20T04:30:11.287Z,6.50
2023-05-20T04:32:41.531Z,6.50
2023-05-20T04:35:11.432Z,6.53
2023-05-20T04:37:42.059Z,6.43
2023-05-20T04:40:11.256Z,7.10
2023-05-20T04:42:38.615Z,6.20
2023-05-20T04:45:05.961Z,6.30
2023-05-20T04:47:38.482Z,6.80
2023-05-20T04:50:06.576Z,6.07
2023-05-20T04:52:33.413Z,6.13
2023-05-20T04:55:01.752Z,6.40
2023-05-20T04:57:28.435Z,6.50
2023-05-20T04:59:58.692Z,6.50
2023-05-20T05:02:25.596Z,6.30
2023-05-20T05:04:53.991Z,6.40
2023-05-20T05:07:20.768Z,6.90
2023-05-20T05:09:48.432Z,6.40
2023-05-20T05:12:15.191Z,7.17
2023-05-20T05:14:41.931Z,6.73
2023-05-20T05:17:09.036Z,7.00
2023-05-20T05:19:35.808Z,6.10
2023-05-20T05:22:03.219Z,6.67
2023-05-20T05:24:30.593Z,6.80
2023-05-20T05:26:57.321Z,6.53
2023-05-20T05:29:24.372Z,7.30
2023-05-20T05:31:51.302Z,7.80
2023-05-20T05:34:18.710Z,7.20
2023-05-20T05:36:45.503Z,6.90
2023-05-20T05:39:12.513Z,6.90
2023-05-20T05:41:40.163Z,7.00
2023-05-20T05:44:07.988Z,7.73
2023-05-20T05:46:35.595Z,6.77
2023-05-20T05:49:02.486Z,6.90
2023-05-20T05:51:29.353Z,6.67
2023-05-20T05:53:57.228Z,7.27
2023-05-20T05:56:24.002Z,6.60
2023-05-20T05:58:50.827Z,6.77
2023-05-20T06:01:17.688Z,7.70
2023-05-20T06:03:44.604Z,6.90
2023-05-20T06:06:11.364Z,7.03
2023-05-20T06:08:38.329Z,7.13
2023-05-20T06:11:06.360Z,7.60
2023-05-20T06:13:33.077Z,6.27
2023-05-20T06:15:59.822Z,7.20
2023-05-20T06:18:26.559Z,7.20
2023-05-20T06:20:57.057Z,7.40
2023-05-20T06:23:24.856Z,6.77
2023-05-20T06:25:59.545Z,6.17
2023-05-20T06:28:26.861Z,7.10
2023-05-20T06:30:56.886Z,7.20
2023-05-20T06:33:26.197Z,6.57
2023-05-20T06:35:53.705Z,7.03
2023-05-20T06:38:21.078Z,6.57
2023-05-20T06:40:49.039Z,7.03
2023-05-20T06:43:15.981Z,6.57
2023-05-20T06:45:54.412Z,6.63
2023-05-20T06:48:28.974Z,6.97
2023-05-20T06:50:56.910Z,7.40
2023-05-20T06:53:23.713Z,6.77
2023-05-20T06:55:50.514Z,6.50
2023-05-20T06:58:17.256Z,6.50
2023-05-20T07:00:44.066Z,6.67
2023-05-20T07:03:11.529Z,7.13
2023-05-20T07:05:38.400Z,6.70
2023-05-20T07:08:05.792Z,7.47
2023-05-20T07:10:32.852Z,6.57
2023-05-20T07:12:59.937Z,6.97
2023-05-20T07:15:26.736Z,6.67
2023-05-20T07:17:53.940Z,6.43
2023-05-20T07:20:21.088Z,6.83
2023-05-20T07:22:50.661Z,7.03
2023-05-20T07:25:23.436Z,6.83
2023-05-20T07:27:50.394Z,6.80
2023-05-20T07:30:17.162Z,7.07
2023-05-20T07:32:50.892Z,7.20
2023-05-20T07:35:17.761Z,6.53
2023-05-20T07:37:44.556Z,6.43
2023-05-20T07:40:11.869Z,7.00
2023-05-20T07:42:38.603Z,7.33
2023-05-20T07:45:06.179Z,7.27
2023-05-20T07:47:33.404Z,7.23
2023-05-20T07:50:00.714Z,7.17
2023-05-20T07:52:28.980Z,6.83
2023-05-20T07:54:55.693Z,6.30
2023-05-20T07:57:22.390Z,7.23
2023-05-20T07:59:49.278Z,7.33
2023-05-20T08:02:17.589Z,7.00
2023-05-20T08:04:45.202Z,7.60
2023-05-20T08:07:13.692Z,6.80
2023-05-20T08:09:47.863Z,6.53
2023-05-20T08:12:14.616Z,6.70
2023-05-20T08:14:41.442Z,6.97
2023-05-20T08:17:08.369Z,7.00
2023-05-20T08:19:35.187Z,7.10
2023-05-20T08:22:02.462Z,7.03
2023-05-20T08:24:29.339Z,6.20
2023-05-20T08:26:56.055Z,7.00
2023-05-20T08:29:25.484Z,7.00
2023-05-20T08:31:52.508Z,6.43
2023-05-20T08:34:20.127Z,6.60
2023-05-20T08:36:46.857Z,7.10
2023-05-20T08:39:15.168Z,6.43
2023-05-20T08:41:41.927Z,6.77
2023-05-20T08:44:10.988Z,6.70
2023-05-20T08:46:38.240Z,6.53
2023-05-20T08:49:06.300Z,6.47
2023-05-20T08:51:33.534Z,7.37
2023-05-20T08:54:00.996Z,7.10
2023-05-20T08:56:30.083Z,7.40
2023-05-20T08:58:57.632Z,7.10
2023-05-20T09:01:25.380Z,6.50
2023-05-20T09:03:52.830Z,7.37
2023-05-20T09:06:22.506Z,7.40
2023-05-20T09:08:49.540Z,7.10
2023-05-20T09:11:16.445Z,6.67
2023-05-20T09:13:43.267Z,7.00
2023-05-20T09:16:10.410Z,7.00
2023-05-20T09:18:40.820Z,6.63
2023-05-20T09:21:07.570Z,6.70
2023-05-20T09:23:36.956Z,6.63
2023-05-20T09:26:04.118Z,6.93
2023-05-20T09:28:30.791Z,6.40
2023-05-20T09:31:00.659Z,7.33
2023-05-20T09:33:29.753Z,6.60
2023-05-20T09:36:04.011Z,6.60
2023-05-20T09:38:37.596Z,6.73
2023-05-20T09:41:08.843Z,6.33
2023-05-20T09:43:36.170Z,6.87
2023-05-20T09:46:04.269Z,6.57
2023-05-20T09:48:34.154Z,6.90
2023-05-20T09:51:01.687Z,6.80
2023-05-20T09:53:28.605Z,6.70
2023-05-20T09:55:55.932Z,6.43
2023-05-20T09:58:23.287Z,6.77
2023-05-20T10:00:50.064Z,7.00
2023-05-20T10:03:18.741Z,7.10
2023-05-20T10:05:48.816Z,7.10
2023-05-20T10:08:35.921Z,6.67
2023-05-20T10:11:11.229Z,7.67
2023-05-20T10:13:50.734Z,7.37
2023-05-20T10:16:30.398Z,7.43
2023-05-20T10:19:16.135Z,7.43
2023-05-20T10:21:42.886Z,7.43
2023-05-20T10:24:10.464Z,7.73
2023-05-20T10:26:40.770Z,7.23
2023-05-20T10:29:17.096Z,7.37
2023-05-20T10:31:44.589Z,7.10
2023-05-20T10:34:15.218Z,7.07
2023-05-20T10:36:45.122Z,6.07
2023-05-20T10:39:16.498Z,6.53
2023-05-20T10:41:43.254Z,6.90
2023-05-20T10:44:09.978Z,6.90
2023-05-20T10:46:53.979Z,6.67
2023-05-20T10:49:27.181Z,6.47
2023-05-20T10:51:54.729Z,7.43
2023-05-20T10:54:22.243Z,6.53
2023-05-20T10:56:53.350Z,7.07
2023-05-20T10:59:21.554Z,7.60
2023-05-20T11:01:48.332Z,7.50
2023-05-20T11:04:16.601Z,7.10
2023-05-20T11:06:50.375Z,7.13
2023-05-20T11:09:17.153Z,6.90
2023-05-20T11:11:43.911Z,7.30
2023-05-20T11:14:13.656Z,7.43
2023-05-20T11:16:43.749Z,7.43
2023-05-20T11:19:17.033Z,7.17
2023-05-20T11:21:44.576Z,7.13
2023-05-20T11:24:11.884Z,6.90
2023-05-20T11:26:38.899Z,7.30
2023-05-20T11:29:05.990Z,7.40
2023-05-20T11:31:32.982Z,7.23
2023-05-20T11:34:01.410Z,7.57
2023-05-20T11:36:28.783Z,7.40
2023-05-20T11:38:57.380Z,7.67
2023-05-20T11:41:27.480Z,8.10
2023-05-20T11:43:58.238Z,7.43
2023-05-20T11:46:25.392Z,7.13
2023-05-20T11:48:55.157Z,7.27
2023-05-20T11:51:27.045Z,7.80
2023-05-20T11:53:54.052Z,7.50
2023-05-20T11:56:21.853Z,7.67
2023-05-20T11:58:48.755Z,7.73
2023-05-20T12:01:22.234Z,7.73
2023-05-20T12:03:49.890Z,7.90
2023-05-20T12:06:17.124Z,8.13
2023-05-20T12:08:43.895Z,7.40
2023-05-20T12:11:10.800Z,8.47
2023-05-20T12:13:37.736Z,7.73
2023-05-20T12:16:05.884Z,8.30
2023-05-20T12:18:33.185Z,8.17
2023-05-20T12:21:00.340Z,8.30
2023-05-20T12:23:27.358Z,7.87
2023-05-20T12:25:54.084Z,8.10
2023-05-20T12:28:21.603Z,8.00
2023-05-20T12:30:48.395Z,7.77
2023-05-20T12:33:15.127Z,7.70
2023-05-20T12:35:43.182Z,8.10
2023-05-20T12:38:10.310Z,8.07
2023-05-20T12:40:37.424Z,8.23
2023-05-20T12:43:05.055Z,7.97
2023-05-20T12:45:31.750Z,8.20
2023-05-20T12:47:58.659Z,8.43
2023-05-20T12:50:25.869Z,7.67
2023-05-20T12:52:52.897Z,7.47
2023-05-20T12:55:19.711Z,8.60
2023-05-20T12:57:46.942Z,8.13
2023-05-20T13:00:13.959Z,7.77
2023-05-20T13:02:42.057Z,8.70
2023-05-20T13:05:11.659Z,7.63
2023-05-20T13:07:38.543Z,7.60
2023-05-20T13:10:06.223Z,8.17
2023-05-20T13:12:33.879Z,8.03
2023-05-20T13:15:00.870Z,8.00
2023-05-20T13:17:28.178Z,7.97
2023-05-20T13:19:55.206Z,8.27
2023-05-20T13:22:22.467Z,7.93
2023-05-20T13:24:49.217Z,8.40
2023-05-20T13:27:15.987Z,8.10
2023-05-20T13:29:43.512Z,8.20
2023-05-20T13:32:10.271Z,8.30
2023-05-20T13:34:38.473Z,8.10
2023-05-20T13:37:05.891Z,8.23
2023-05-20T13:39:32.718Z,7.80
2023-05-20T13:41:59.574Z,7.70
2023-05-20T13:44:26.291Z,7.10
2023-05-20T13:46:53.090Z,8.43
2023-05-20T13:49:21.040Z,8.37
2023-05-20T13:51:47.772Z,7.63
2023-05-20T13:54:14.471Z,7.60
2023-05-20T13:56:41.176Z,8.10
2023-05-20T13:59:08.024Z,7.30
2023-05-20T14:01:34.956Z,7.13
2023-05-20T14:04:02.087Z,7.40
2023-05-20T14:06:29.514Z,7.07
2023-05-20T14:08:56.842Z,7.13
2023-05-20T14:11:23.662Z,7.60
2023-05-20T14:13:50.358Z,7.50
2023-05-20T14:16:17.187Z,7.33
2023-05-20T14:18:44.073Z,7.10
2023-05-20T14:21:11.367Z,7.10
2023-05-20T14:23:38.131Z,6.50
2023-05-20T14:26:04.902Z,6.77
2023-05-20T14:28:32.760Z,7.40
2023-05-20T14:30:59.489Z,7.23
2023-05-20T14:33:26.215Z,7.40
2023-05-20T14:35:54.977Z,6.40
2023-05-20T14:38:21.835Z,7.03
2023-05-20T14:40:48.588Z,6.93
2023-05-20T14:43:15.315Z,6.50
2023-05-20T14:45:42.062Z,6.43
2023-05-20T14:48:08.923Z,6.00
2023-05-20T14:50:36.083Z,7.47
2023-05-20T14:53:03.088Z,6.37
2023-05-20T14:55:29.791Z,6.27
2023-05-20T14:57:56.501Z,6.87
2023-05-20T15:00:23.277Z,6.83
2023-05-20T15:02:50.237Z,6.53
2023-05-20T15:05:18.012Z,6.40
2023-05-20T15:07:44.937Z,6.97
2023-05-20T15:10:13.480Z,6.10
2023-05-20T15:12:40.290Z,6.20
2023-05-20T15:15:07.232Z,6.30
2023-05-20T15:17:33.954Z,5.87
2023-05-20T15:20:01.151Z,6.30
2023-05-20T15:22:27.937Z,6.37
2023-05-20T15:24:54.684Z,6.53
2023-05-20T15:27:21.614Z,6.43
2023-05-20T15:29:48.669Z,6.40
2023-05-20T15:32:15.579Z,6.70
2023-05-20T15:34:42.304Z,6.50
2023-05-20T15:37:09.029Z,6.17
2023-05-20T15:39:37.163Z,6.17
2023-05-20T15:42:03.987Z,6.97
2023-05-20T15:44:30.857Z,6.27
2023-05-20T15:46:57.680Z,6.53
2023-05-20T15:49:24.435Z,6.20
2023-05-20T15:52:02.252Z,6.60
2023-05-20T15:54:30.669Z,6.50
2023-05-20T15:56:57.971Z,6.73
2023-05-20T15:59:24.823Z,7.23
2023-05-20T16:01:51.652Z,7.33
2023-05-20T16:04:19.008Z,6.93
2023-05-20T16:06:46.613Z,6.30
2023-05-20T16:09:13.286Z,7.17
2023-05-20T16:11:39.968Z,7.20
2023-05-20T16:14:06.670Z,7.10
2023-05-20T16:16:35.814Z,6.63
2023-05-20T16:19:02.999Z,6.73
2023-05-20T16:21:29.747Z,7.27
2023-05-20T16:23:56.559Z,6.43
2023-05-20T16:26:23.262Z,6.80
2023-05-20T16:28:50.045Z,6.63
2023-05-20T16:31:16.858Z,6.53
2023-05-20T16:33:43.671Z,6.57
2023-05-20T16:36:11.961Z,7.00
2023-05-20T16:38:39.039Z,7.00
2023-05-20T16:41:05.770Z,6.80
2023-05-20T16:43:32.580Z,7.30
2023-05-20T16:45:59.345Z,6.67
2023-05-20T16:48:26.609Z,6.57
2023-05-20T16:50:53.391Z,7.40
2023-05-20T16:53:20.145Z,6.77
2023-05-20T16:55:47.167Z,6.70
2023-05-20T16:58:14.269Z,6.30
2023-05-20T17:00:41.602Z,6.80
2023-05-20T17:03:08.537Z,7.33
2023-05-20T17:05:35.562Z,7.27
2023-05-20T17:08:02.300Z,7.20
2023-05-20T17:10:29.463Z,7.63
2023-05-20T17:12:56.516Z,7.10
2023-05-20T17:15:23.333Z,7.43
2023-05-20T17:17:50.920Z,6.87
2023-05-20T17:20:17.756Z,6.80
2023-05-20T17:22:44.457Z,6.97
2023-05-20T17:25:11.359Z,7.27
2023-05-20T17:27:38.156Z,6.37
2023-05-20T17:30:05.467Z,6.60
2023-05-20T17:32:32.220Z,7.00
2023-05-20T17:34:58.971Z,7.53
2023-05-20T17:37:25.986Z,6.70
2023-05-20T17:39:52.820Z,6.87
2023-05-20T17:42:19.550Z,7.10
2023-05-20T17:44:46.441Z,7.73
2023-05-20T17:47:13.293Z,6.80
2023-05-20T17:49:40.469Z,7.30
2023-05-20T17:52:07.424Z,6.77
2023-05-20T17:54:34.313Z,6.87
2023-05-20T17:57:01.063Z,7.60
2023-05-20T17:59:27.820Z,6.93
2023-05-20T18:01:54.732Z,7.10
2023-05-20T18:04:21.830Z,6.87
2023-05-20T18:06:48.656Z,7.13
2023-05-20T18:09:15.387Z,6.70
2023-05-20T18:11:42.154Z,6.73
2023-05-20T18:14:08.919Z,6.63
2023-05-20T18:16:35.905Z,6.63
2023-05-20T18:19:03.060Z,7.40
2023-05-20T18:21:29.829Z,7.23
2023-05-20T18:23:56.633Z,8.50
2023-05-20T18:26:23.362Z,12.90
2023-05-20T18:28:50.052Z,37.07
2023-05-20T18:31:16.799Z,8.13
2023-05-20T18:33:43.593Z,7.43
2023-05-20T18:36:10.592Z,7.47
2023-05-20T18:38:39.138Z,8.03
2023-05-20T18:41:08.020Z,7.10
2023-05-20T18:43:34.794Z,10.77
2023-05-20T18:46:01.728Z,7.27
2023-05-20T18:48:28.519Z,8.03
2023-05-20T18:50:56.110Z,7.60
2023-05-20T18:53:23.479Z,6.90
2023-05-20T18:55:50.655Z,7.50
2023-05-20T18:58:17.333Z,8.17
2023-05-20T19:00:44.144Z,8.10
2023-05-20T19:03:11.464Z,7.27
2023-05-20T19:05:38.736Z,8.10
2023-05-20T19:08:05.990Z,7.63
2023-05-20T19:10:33.934Z,8.23
2023-05-20T19:13:01.136Z,6.83
2023-05-20T19:15:30.076Z,7.50
2023-05-20T19:17:57.073Z,7.70
2023-05-20T19:20:23.896Z,8.50
2023-05-20T19:22:51.828Z,8.17
2023-05-20T19:25:19.298Z,8.10
2023-05-20T19:27:46.019Z,8.00
2023-05-20T19:30:12.811Z,7.93
2023-05-20T19:32:39.724Z,8.00
2023-05-20T19:35:06.723Z,8.53
2023-05-20T19:37:33.482Z,7.83
2023-05-20T19:40:00.939Z,7.87
2023-05-20T19:42:27.717Z,8.23
2023-05-20T19:44:54.466Z,8.57
2023-05-20T19:47:21.575Z,9.23
2023-05-20T19:49:48.642Z,8.23
2023-05-20T19:52:15.662Z,7.87
2023-05-20T19:54:42.822Z,8.57
2023-05-20T19:57:10.007Z,7.80
2023-05-20T19:59:38.019Z,8.33
2023-05-20T20:02:05.896Z,7.83
2023-05-20T20:04:32.814Z,7.93
2023-05-20T20:06:59.937Z,8.67
2023-05-20T20:09:27.005Z,7.93
2023-05-20T20:11:53.992Z,8.13
2023-05-20T20:14:21.431Z,8.60
2023-05-20T20:16:48.797Z,9.00
2023-05-20T20:19:22.866Z,8.40
2023-05-20T20:21:52.230Z,8.50
2023-05-20T20:24:19.417Z,8.60
2023-05-20T20:26:49.067Z,8.00
2023-05-20T20:29:16.007Z,8.23
2023-05-20T20:31:42.876Z,8.57
2023-05-20T20:34:09.786Z,8.43
2023-05-20T20:36:36.528Z,9.03
2023-05-20T20:39:04.546Z,9.20
2023-05-20T20:41:31.993Z,8.67
2023-05-20T20:43:59.265Z,9.00
2023-05-20T20:46:27.524Z,8.33
2023-05-20T20:48:54.477Z,8.53
2023-05-20T20:51:21.216Z,8.83
2023-05-20T20:53:48.700Z,8.13
2023-05-20T20:56:15.728Z,8.60
2023-05-20T20:58:42.482Z,8.60
2023-05-20T21:01:09.965Z,8.60
2023-05-20T21:03:39.834Z,9.70
2023-05-20T21:06:07.377Z,8.57
2023-05-20T21:08:34.172Z,9.17
2023-05-20T21:11:00.916Z,8.33
2023-05-20T21:13:28.321Z,8.33
2023-05-20T21:15:55.120Z,8.40
2023-05-20T21:18:22.850Z,9.37
2023-05-20T21:20:50.924Z,9.60
2023-05-20T21:23:18.310Z,8.67
2023-05-20T21:25:45.046Z,8.87
2023-05-20T21:28:11.849Z,8.67
2023-05-20T21:30:38.664Z,9.03
2023-05-20T21:33:05.793Z,9.10
2023-05-20T21:35:32.514Z,9.30
2023-05-20T21:37:59.244Z,9.03
2023-05-20T21:40:25.994Z,9.23
2023-05-20T21:42:52.686Z,8.83
2023-05-20T21:45:19.407Z,8.77
2023-05-20T21:47:46.413Z,8.97
2023-05-20T21:50:13.333Z,9.43
2023-05-20T21:52:40.186Z,9.23
2023-05-20T21:55:10.574Z,9.13
2023-05-20T21:57:37.411Z,9.27
2023-05-20T22:00:06.665Z,9.07
2023-05-20T22:02:33.407Z,9.10
2023-05-20T22:05:00.387Z,9.13
2023-05-20T22:07:27.159Z,9.07
2023-05-20T22:09:53.903Z,9.03
2023-05-20T22:12:20.636Z,9.83
2023-05-20T22:14:47.370Z,9.23
2023-05-20T22:17:14.667Z,9.03
2023-05-20T22:19:41.567Z,9.00
2023-05-20T22:22:08.415Z,9.33
2023-05-20T22:24:35.083Z,9.00
2023-05-20T22:27:01.914Z,10.20
2023-05-20T22:29:31.396Z,9.53
2023-05-20T22:31:58.357Z,9.20
2023-05-20T22:34:25.255Z,8.87
2023-05-20T22:36:53.877Z,9.20
2023-05-20T22:39:21.478Z,9.57
2023-05-20T22:41:48.271Z,9.37
2023-05-20T22:44:15.418Z,9.03
2023-05-20T22:46:42.148Z,8.90
2023-05-20T22:49:10.287Z,9.20
2023-05-20T22:51:38.509Z,9.03
2023-05-20T22:54:06.853Z,9.00
2023-05-20T22:56:34.215Z,8.90
2023-05-20T22:59:01.344Z,9.53
2023-05-20T23:01:28.201Z,8.80
2023-05-20T23:03:55.239Z,9.70
2023-05-20T23:06:22.530Z,8.97
2023-05-20T23:08:49.465Z,9.30
2023-05-20T23:11:16.280Z,9.40
2023-05-20T23:13:43.040Z,9.57
2023-05-20T23:16:10.167Z,8.70
2023-05-20T23:18:37.081Z,9.33
2023-05-20T23:21:04.132Z,9.57
2023-05-20T23:23:32.018Z,9.83
2023-05-20T23:25:59.144Z,9.60
2023-05-20T23:28:26.063Z,8.80
2023-05-20T23:30:52.873Z,9.03
2023-05-20T23:33:24.835Z,9.13
2023-05-20T23:35:52.457Z,9.33
2023-05-20T23:38:19.211Z,8.83
2023-05-20T23:40:45.922Z,9.00
2023-05-20T23:43:12.702Z,9.70
2023-05-20T23:45:39.424Z,9.47
2023-05-20T23:48:09.681Z,9.03
2023-05-20T23:50:36.534Z,9.13
2023-05-20T23:53:03.599Z,9.30
2023-05-20T23:55:31.689Z,9.53
2023-05-20T23:57:58.491Z,8.80
